메인 페이지
METAR-TAF:

METAR-TAF

공항 :

빙엄턴, 뉴욕, 미국

위도: 42-12-28N, 경도: 075-58-53W, 고도: 496m

현재 날씨관측

예보는 25분 전, 21:53시(UTC)에 발표되었습니다.
북북동4kt
온도 6°C
습도 81%
기압 1012 hPa
시정: 8.0km
고도 2700ft 상공 구름 보통
고도 3300ft 상공 흐림
약한비, 박무

METAR: KBGM 312153Z 03004KT 5SM -RA BR SCT027 OVC033 06/03 A2989 RMK AO2 SLP130 P0001 T00560033

시각: 18:18 (22:18 UTC)

예보

예보는 4 시간 47분 전, 17:31시(UTC)에 발표되었습니다.
예보 대상 시간: 31일 18시부터 01일 18시까지 (UTC)
여러 방향의 바람 3kt
시정: 10km
고도 2500ft 상공 흐림
31일 2100시부터 (UTC)
여러 방향의 바람 3kt
시정: 10km
고도 3500ft 상공 흐림
01일 0500시부터 (UTC)
kt
시정: 10km
고도 2200ft 상공 구름 많음

TAF: KBGM 311731Z 3118/0118 VRB03KT P6SM OVC025 FM312100 VRB03KT P6SM OVC035 FM010500 00000KT P6SM BKN022

4,000개 이상의 공항 관측 자료 및 예보 (METAR 및 TAF 보고).

지도상에서 검색 가능한 기상관측소가 노란 점과 빨간 점으로 표시되어 있습니다.

기상관측소 명을 보려면 표시 위로 마우스를 이동하세요.

날씨 관측과 예보를 보려면 클릭하세요.

지도 변경 : 확대하려면 엑스 표시가 있는 녹색 버튼, 축소하려면 빼기 표시가 있는 녹색 버튼, 다음 페이지의 지도를 보려면 녹색 화살표를 클릭하세요.


METAR-TAF: